createdAt,value
2024-03-14T00:00:24.197Z,67998.03
2024-03-14T00:02:53.424Z,67995.59
2024-03-14T00:05:21.550Z,67996.38
2024-03-14T00:07:48.914Z,68007.09
2024-03-14T00:10:16.081Z,68010.88
2024-03-14T00:12:43.347Z,68011.81
2024-03-14T00:15:12.949Z,68008.59
2024-03-14T00:17:40.443Z,68007.47
2024-03-14T00:20:10.039Z,68005.22
2024-03-14T00:22:37.827Z,67983.34
2024-03-14T00:25:04.966Z,67995.78
2024-03-14T00:27:32.101Z,67979.19
2024-03-14T00:29:59.308Z,67983.16
2024-03-14T00:32:26.567Z,67991.06
2024-03-14T00:34:53.836Z,67993.16
2024-03-14T00:37:20.998Z,67970.56
2024-03-14T00:39:48.233Z,67974.88
2024-03-14T00:42:15.421Z,67988.63
2024-03-14T00:44:43.417Z,67986.56
2024-03-14T00:47:11.648Z,67990.50
2024-03-14T00:49:39.476Z,67994.66
2024-03-14T00:52:06.688Z,67983.16
2024-03-14T00:54:34.930Z,67980.88
2024-03-14T00:57:03.981Z,67971.28
2024-03-14T00:59:31.790Z,67973.19
2024-03-14T01:01:59.055Z,67968.47
2024-03-14T01:04:26.142Z,67952.44
2024-03-14T01:06:54.042Z,67945.69
2024-03-14T01:09:26.378Z,67938.88
2024-03-14T01:11:56.618Z,67941.88
2024-03-14T01:14:23.818Z,67929.84
2024-03-14T01:16:52.107Z,67929.09
2024-03-14T01:19:20.226Z,67935.47
2024-03-14T01:21:47.442Z,67925.50
2024-03-14T01:24:14.975Z,67934.16
2024-03-14T01:26:43.493Z,67920.03
2024-03-14T01:29:12.074Z,67917.22
2024-03-14T01:31:39.598Z,67901.38
2024-03-14T01:34:07.014Z,67897.25
2024-03-14T01:36:38.334Z,67892.72
2024-03-14T01:39:06.712Z,67881.63
2024-03-14T01:41:33.875Z,67878.03
2024-03-14T01:44:02.595Z,67875.97
2024-03-14T01:46:31.895Z,67876.34
2024-03-14T01:49:01.219Z,67872.56
2024-03-14T01:51:31.983Z,67879.94
2024-03-14T01:54:00.901Z,67884.25
2024-03-14T01:56:28.344Z,67868.06
2024-03-14T01:58:56.088Z,67819.84
2024-03-14T02:01:25.199Z,67858.81
2024-03-14T02:04:02.347Z,67859.75
2024-03-14T02:06:38.112Z,67853.19
2024-03-14T02:09:06.041Z,67852.03
2024-03-14T02:11:34.018Z,67844.50
2024-03-14T02:14:01.477Z,67852.63
2024-03-14T02:16:28.525Z,67849.41
2024-03-14T02:18:55.703Z,67847.50
2024-03-14T02:21:22.996Z,67840.94
2024-03-14T02:23:51.641Z,67844.69
2024-03-14T02:26:18.767Z,67843.34
2024-03-14T02:28:45.859Z,67834.72
2024-03-14T02:31:12.971Z,67836.22
2024-03-14T02:33:40.116Z,67839.59
2024-03-14T02:36:07.441Z,67841.69
2024-03-14T02:38:35.172Z,67852.63
2024-03-14T02:41:02.387Z,67856.94
2024-03-14T02:43:29.640Z,67843.75
2024-03-14T02:45:56.784Z,67848.66
2024-03-14T02:48:23.982Z,67859.38
2024-03-14T02:50:51.128Z,67862.63
2024-03-14T02:53:18.243Z,67870.88
2024-03-14T02:55:45.562Z,67872.56
2024-03-14T02:58:12.876Z,67876.53
2024-03-14T03:00:40.060Z,67876.91
2024-03-14T03:03:08.048Z,67871.25
2024-03-14T03:05:36.228Z,67859.59
2024-03-14T03:08:03.940Z,67832.66
2024-03-14T03:10:31.075Z,67817.78
2024-03-14T03:12:58.052Z,67796.69
2024-03-14T03:15:25.438Z,67772.03
2024-03-14T03:17:53.689Z,67767.31
2024-03-14T03:20:20.806Z,67777.13
2024-03-14T03:23:06.655Z,67765.47
2024-03-14T03:25:34.264Z,67780.69
2024-03-14T03:28:05.694Z,67778.06
2024-03-14T03:30:33.039Z,67810.44
2024-03-14T03:33:01.503Z,67793.13
2024-03-14T03:35:28.993Z,67801.97
2024-03-14T03:37:56.690Z,67811.34
2024-03-14T03:40:24.481Z,67813.81
2024-03-14T03:42:54.496Z,67818.69
2024-03-14T03:45:22.472Z,67806.47
2024-03-14T03:47:50.921Z,67800.47
2024-03-14T03:50:19.086Z,67816.44
2024-03-14T03:52:47.267Z,67804.78
2024-03-14T03:55:18.234Z,67801.19
2024-03-14T03:57:47.232Z,67787.66
2024-03-14T04:00:34.071Z,67785.94
2024-03-14T04:03:01.401Z,67776.91
2024-03-14T04:05:28.639Z,67775.06
2024-03-14T04:08:01.012Z,67773.94
2024-03-14T04:10:28.583Z,67777.50
2024-03-14T04:12:55.963Z,67770.91
2024-03-14T04:15:23.118Z,67774.09
2024-03-14T04:17:52.090Z,67770.34
2024-03-14T04:20:19.392Z,67767.53
2024-03-14T04:22:48.122Z,67762.44
2024-03-14T04:25:15.589Z,67747.97
2024-03-14T04:27:42.917Z,67742.50
2024-03-14T04:30:18.347Z,67733.88
2024-03-14T04:32:49.330Z,67732.31
2024-03-14T04:35:16.964Z,67724.06
2024-03-14T04:37:48.557Z,67726.13
2024-03-14T04:40:17.994Z,67725.56
2024-03-14T04:42:54.455Z,67726.13
2024-03-14T04:45:23.087Z,67734.03
2024-03-14T04:47:50.972Z,67737.41
2024-03-14T04:50:22.624Z,67738.53
2024-03-14T04:52:55.584Z,67738.75
2024-03-14T04:55:24.645Z,67741.91
2024-03-14T04:57:52.048Z,67752.06
2024-03-14T05:00:23.203Z,67738.53
2024-03-14T05:02:52.880Z,67730.28
2024-03-14T05:05:22.693Z,67731.22
2024-03-14T05:07:51.192Z,67746.44
2024-03-14T05:10:22.615Z,67739.66
2024-03-14T05:12:50.745Z,67726.53
2024-03-14T05:15:18.413Z,67727.81
2024-03-14T05:17:47.059Z,67731.22
2024-03-14T05:20:15.702Z,67729.16
2024-03-14T05:22:44.105Z,67731.03
2024-03-14T05:25:13.568Z,67733.66
2024-03-14T05:27:51.035Z,67741.56
2024-03-14T05:30:19.658Z,67744.38
2024-03-14T05:32:47.189Z,67743.63
2024-03-14T05:35:14.627Z,67744.75
2024-03-14T05:37:43.034Z,67742.69
2024-03-14T05:40:13.643Z,67741.75
2024-03-14T05:42:41.071Z,67743.63
2024-03-14T05:45:10.129Z,67751.53
2024-03-14T05:47:40.132Z,67757.16
2024-03-14T05:50:08.814Z,67757.00
2024-03-14T05:52:37.123Z,67755.69
2024-03-14T05:55:04.720Z,67763.03
2024-03-14T05:57:32.318Z,67760.91
2024-03-14T05:59:59.839Z,67753.44
2024-03-14T06:02:26.989Z,67747.19
2024-03-14T06:04:54.504Z,67746.66
2024-03-14T06:07:23.367Z,67762.81
2024-03-14T06:09:52.165Z,67752.28
2024-03-14T06:12:19.817Z,67753.44
2024-03-14T06:14:47.674Z,67756.03
2024-03-14T06:17:16.523Z,67760.97
2024-03-14T06:19:43.687Z,67758.50
2024-03-14T06:22:11.908Z,67755.69
2024-03-14T06:24:39.288Z,67761.66
2024-03-14T06:27:06.562Z,67760.00
2024-03-14T06:29:33.687Z,67760.56
2024-03-14T06:32:00.768Z,67757.94
2024-03-14T06:34:30.821Z,67769.00
2024-03-14T06:36:58.980Z,67780.13
2024-03-14T06:39:30.769Z,67783.88
2024-03-14T06:41:59.068Z,67791.03
2024-03-14T06:44:26.293Z,67785.94
2024-03-14T06:46:53.452Z,67780.88
2024-03-14T06:49:20.603Z,67780.53
2024-03-14T06:51:47.725Z,67785.94
2024-03-14T06:54:14.892Z,67796.31
2024-03-14T06:56:42.181Z,67797.81
2024-03-14T06:59:09.457Z,67795.19
2024-03-14T07:01:36.673Z,67787.28
2024-03-14T07:04:04.517Z,67795.75
2024-03-14T07:06:33.208Z,67796.69
2024-03-14T07:09:01.569Z,67807.22
2024-03-14T07:11:29.932Z,67814.94
2024-03-14T07:13:58.137Z,67811.94
2024-03-14T07:16:27.236Z,67818.34
2024-03-14T07:18:57.491Z,67817.97
2024-03-14T07:21:24.769Z,67825.50
2024-03-14T07:23:52.003Z,67816.28
2024-03-14T07:26:23.608Z,67831.88
2024-03-14T07:28:54.328Z,67833.03
2024-03-14T07:31:21.559Z,67840.94
2024-03-14T07:33:49.810Z,67837.16
2024-03-14T07:36:17.649Z,67840.00
2024-03-14T07:38:45.400Z,67857.69
2024-03-14T07:41:12.846Z,67859.03
2024-03-14T07:43:40.362Z,67868.06
2024-03-14T07:46:09.134Z,67872.22
2024-03-14T07:48:39.125Z,67874.09
2024-03-14T07:51:08.777Z,67874.47
2024-03-14T07:53:36.062Z,67886.31
2024-03-14T07:56:05.355Z,67876.75
2024-03-14T07:58:33.331Z,67885.00
2024-03-14T08:01:01.846Z,67883.69
2024-03-14T08:03:30.276Z,67881.06
2024-03-14T08:05:57.522Z,67871.09
2024-03-14T08:08:26.787Z,67878.97
2024-03-14T08:10:54.435Z,67871.47
2024-03-14T08:13:23.234Z,67873.16
2024-03-14T08:15:54.227Z,67881.81
2024-03-14T08:18:23.237Z,67889.72
2024-03-14T08:20:53.274Z,67901.75
2024-03-14T08:23:21.894Z,67903.09
2024-03-14T08:25:49.168Z,67927.19
2024-03-14T08:28:17.159Z,67923.22
2024-03-14T08:30:46.120Z,67935.88
2024-03-14T08:33:14.701Z,67935.50
2024-03-14T08:35:44.424Z,67951.34
2024-03-14T08:38:15.469Z,67956.78
2024-03-14T08:40:43.705Z,67954.72
2024-03-14T08:43:14.035Z,67966.94
2024-03-14T08:45:41.994Z,67993.75
2024-03-14T08:48:09.929Z,67982.78
2024-03-14T08:50:37.449Z,67985.06
2024-03-14T08:53:04.677Z,68000.50
2024-03-14T08:55:34.560Z,67987.72
2024-03-14T08:58:04.533Z,68001.06
2024-03-14T09:00:32.623Z,67996.38
2024-03-14T09:03:02.858Z,68006.16
2024-03-14T09:05:30.892Z,68019.16
2024-03-14T09:07:58.029Z,68015.56
2024-03-14T09:10:26.554Z,68028.78
2024-03-14T09:12:54.332Z,68044.06
2024-03-14T09:15:23.253Z,68043.84
2024-03-14T09:17:51.868Z,68043.69
2024-03-14T09:20:22.017Z,68045.94
2024-03-14T09:22:56.542Z,68056.50
2024-03-14T09:25:25.868Z,68058.56
2024-03-14T09:27:53.682Z,68057.66
2024-03-14T09:30:23.633Z,68071.22
2024-03-14T09:32:52.219Z,68090.63
2024-03-14T09:35:28.092Z,68106.84
2024-03-14T09:37:56.945Z,68113.06
2024-03-14T09:40:25.065Z,68122.53
2024-03-14T09:43:00.682Z,68126.13
2024-03-14T09:45:30.504Z,68121.03
2024-03-14T09:47:58.904Z,68148.19
2024-03-14T09:50:28.118Z,68149.16
2024-03-14T09:52:56.900Z,68167.63
2024-03-14T09:55:25.214Z,68152.72
2024-03-14T09:57:57.015Z,68153.66
2024-03-14T10:00:27.641Z,68171.78
2024-03-14T10:02:59.719Z,68180.28
2024-03-14T10:05:27.486Z,68198.59
2024-03-14T10:07:58.692Z,68206.16
2024-03-14T10:10:33.146Z,68224.63
2024-03-14T10:13:00.626Z,68230.47
2024-03-14T10:15:28.834Z,68228.81
2024-03-14T10:17:57.607Z,68249.75
2024-03-14T10:20:24.942Z,68251.25
2024-03-14T10:22:52.748Z,68245.97
2024-03-14T10:25:29.478Z,68294.31
2024-03-14T10:28:05.760Z,68309.06
2024-03-14T10:30:38.964Z,68324.19
2024-03-14T10:33:09.488Z,68338.00
2024-03-14T10:35:38.871Z,68349.69
2024-03-14T10:38:12.862Z,68328.91
2024-03-14T10:40:42.849Z,68357.06
2024-03-14T10:43:12.161Z,68353.09
2024-03-14T10:45:39.719Z,68345.91
2024-03-14T10:48:10.928Z,68358.75
2024-03-14T10:50:38.972Z,68382.41
2024-03-14T10:53:09.320Z,68371.22
2024-03-14T10:55:39.395Z,68387.13
2024-03-14T10:58:06.894Z,68373.69
2024-03-14T11:00:36.511Z,68399.78
2024-03-14T11:03:05.181Z,68407.53
2024-03-14T11:05:33.292Z,68394.28
2024-03-14T11:08:04.786Z,68417.94
2024-03-14T11:10:35.369Z,68440.03
2024-03-14T11:13:17.736Z,68438.34
2024-03-14T11:15:45.285Z,68456.50
2024-03-14T11:18:15.575Z,68467.09
2024-03-14T11:20:51.284Z,68466.16
2024-03-14T11:23:21.079Z,68445.72
2024-03-14T11:25:53.733Z,68420.97
2024-03-14T11:28:22.288Z,68432.09
2024-03-14T11:30:58.142Z,68464.44
2024-03-14T11:33:29.244Z,68457.06
2024-03-14T11:35:58.266Z,68456.13
2024-03-14T11:38:29.772Z,68448.56
2024-03-14T11:41:03.252Z,68414.91
2024-03-14T11:43:35.359Z,68419.63
2024-03-14T11:46:09.189Z,68416.78
2024-03-14T11:48:38.159Z,68408.28
2024-03-14T11:51:05.581Z,68404.31
2024-03-14T11:53:35.537Z,68386.75
2024-03-14T11:56:10.448Z,68418.31
2024-03-14T11:58:43.463Z,68406.03
2024-03-14T12:01:22.106Z,68432.09
2024-03-14T12:03:59.037Z,68428.13
2024-03-14T12:06:27.190Z,68409.59
2024-03-14T12:08:54.468Z,68421.91
2024-03-14T12:11:22.730Z,68451.00
2024-03-14T12:13:50.165Z,68467.47
2024-03-14T12:16:19.701Z,68516.66
2024-03-14T12:18:53.660Z,68533.69
2024-03-14T12:21:21.840Z,68541.09
2024-03-14T12:23:56.152Z,68526.72
2024-03-14T12:26:23.917Z,68489.97
2024-03-14T12:28:52.324Z,68479.75
2024-03-14T12:31:20.777Z,68450.81
2024-03-14T12:33:48.180Z,68469.72
2024-03-14T12:36:18.972Z,68477.50
2024-03-14T12:38:53.324Z,68461.97
2024-03-14T12:41:20.621Z,68436.06
2024-03-14T12:43:48.897Z,68398.81
2024-03-14T12:46:21.336Z,68413.19
2024-03-14T12:48:50.112Z,68397.69
2024-03-14T12:51:24.660Z,68412.81
2024-03-14T12:53:59.391Z,68409.59
2024-03-14T12:56:26.899Z,68393.53
2024-03-14T12:58:55.137Z,68376.72
2024-03-14T13:01:31.426Z,68395.25
2024-03-14T13:04:08.911Z,68394.31
2024-03-14T13:06:37.323Z,68373.50
2024-03-14T13:09:15.845Z,68364.44
2024-03-14T13:12:03.268Z,68361.41
2024-03-14T13:14:30.537Z,68345.91
2024-03-14T13:17:07.166Z,68349.13
2024-03-14T13:19:36.869Z,68357.63
2024-03-14T13:22:12.137Z,68381.25
2024-03-14T13:24:39.545Z,68392.03
2024-03-14T13:27:06.848Z,68368.03
2024-03-14T13:29:35.098Z,68362.16
2024-03-14T13:32:02.246Z,68375.41
2024-03-14T13:34:32.483Z,68381.63
2024-03-14T13:36:59.671Z,68378.22
2024-03-14T13:39:28.368Z,68405.81
2024-03-14T13:41:58.662Z,68408.66
2024-03-14T13:44:25.798Z,68392.59
2024-03-14T13:46:53.763Z,68396.94
2024-03-14T13:49:21.416Z,68389.38
2024-03-14T13:51:49.573Z,68396.75
2024-03-14T13:54:25.387Z,68377.66
2024-03-14T13:56:55.465Z,68395.06
2024-03-14T13:59:23.003Z,68396.94
2024-03-14T14:01:50.434Z,68421.72
2024-03-14T14:04:18.492Z,68413.19
2024-03-14T14:06:45.893Z,68414.72
2024-03-14T14:09:13.914Z,68393.53
2024-03-14T14:11:41.189Z,68390.34
2024-03-14T14:14:08.748Z,68382.19
2024-03-14T14:16:37.697Z,68377.28
2024-03-14T14:19:08.201Z,68373.69
2024-03-14T14:21:38.973Z,68371.03
2024-03-14T14:24:07.003Z,68373.50
2024-03-14T14:26:34.198Z,68382.56
2024-03-14T14:29:01.272Z,68401.09
2024-03-14T14:31:28.939Z,68391.66
2024-03-14T14:33:56.591Z,68395.44
2024-03-14T14:36:23.708Z,68399.22
2024-03-14T14:38:52.891Z,68406.59
2024-03-14T14:41:20.806Z,68383.91
2024-03-14T14:43:47.957Z,68404.13
2024-03-14T14:46:15.279Z,68391.09
2024-03-14T14:48:42.549Z,68383.34
2024-03-14T14:51:09.819Z,68375.97
2024-03-14T14:53:37.027Z,68361.97
2024-03-14T14:56:15.268Z,68362.16
2024-03-14T14:58:45.970Z,68367.84
2024-03-14T15:01:17.984Z,68360.09
2024-03-14T15:03:46.233Z,68344.22
2024-03-14T15:06:13.935Z,68343.06
2024-03-14T15:08:44.222Z,68351.97
2024-03-14T15:11:11.610Z,68356.31
2024-03-14T15:13:39.426Z,68364.44
2024-03-14T15:16:09.318Z,68362.94
2024-03-14T15:18:38.943Z,68368.78
2024-03-14T15:21:07.755Z,68357.06
2024-03-14T15:23:37.071Z,68363.50
2024-03-14T15:26:09.730Z,68366.31
2024-03-14T15:28:36.920Z,68361.78
2024-03-14T15:31:04.140Z,68358.22
2024-03-14T15:33:31.353Z,68347.25
2024-03-14T15:35:58.967Z,68372.19
2024-03-14T15:38:28.875Z,68364.63
2024-03-14T15:40:56.041Z,68351.00
2024-03-14T15:43:23.223Z,68354.97
2024-03-14T15:45:52.751Z,68366.69
2024-03-14T15:48:22.368Z,68365.00
2024-03-14T15:50:50.331Z,68364.06
2024-03-14T15:53:17.411Z,68358.22
2024-03-14T15:55:46.292Z,68350.28
2024-03-14T15:58:13.394Z,68349.31
2024-03-14T16:00:41.156Z,68368.97
2024-03-14T16:03:09.628Z,68354.41
2024-03-14T16:05:37.495Z,68358.00
2024-03-14T16:08:05.026Z,68364.81
2024-03-14T16:10:32.246Z,68357.25
2024-03-14T16:13:00.437Z,68368.03
2024-03-14T16:15:27.620Z,68364.63
2024-03-14T16:17:56.034Z,68357.81
2024-03-14T16:20:33.305Z,68362.72
2024-03-14T16:23:03.199Z,68359.16
2024-03-14T16:25:35.974Z,68354.25
2024-03-14T16:28:07.529Z,68355.94
2024-03-14T16:30:35.913Z,68345.91
2024-03-14T16:33:03.997Z,68377.47
2024-03-14T16:35:33.925Z,68347.44
2024-03-14T16:38:02.852Z,68345.91
2024-03-14T16:40:32.360Z,68338.56
2024-03-14T16:43:02.465Z,68338.00
2024-03-14T16:45:30.416Z,68337.22
2024-03-14T16:48:02.971Z,68347.81
2024-03-14T16:50:32.161Z,68351.00
2024-03-14T16:52:59.807Z,68345.72
2024-03-14T16:55:29.728Z,68354.03
2024-03-14T16:58:01.288Z,68341.97
2024-03-14T17:00:31.770Z,68344.78
2024-03-14T17:02:59.999Z,68345.91
2024-03-14T17:05:27.063Z,68338.00
2024-03-14T17:07:54.129Z,68339.09
2024-03-14T17:10:24.372Z,68334.03
2024-03-14T17:12:52.864Z,68330.06
2024-03-14T17:15:22.689Z,68333.81
2024-03-14T17:17:50.098Z,68326.66
2024-03-14T17:20:18.306Z,68329.47
2024-03-14T17:22:47.386Z,68331.56
2024-03-14T17:25:16.128Z,68330.41
2024-03-14T17:27:45.279Z,68329.66
2024-03-14T17:30:18.178Z,68325.13
2024-03-14T17:32:45.831Z,68326.03
2024-03-14T17:35:13.683Z,68324.38
2024-03-14T17:37:43.400Z,68327.22
2024-03-14T17:40:14.350Z,68328.13
2024-03-14T17:42:43.700Z,68326.44
2024-03-14T17:45:16.840Z,68320.19
2024-03-14T17:47:47.578Z,68319.06
2024-03-14T17:50:16.091Z,68312.25
2024-03-14T17:52:46.140Z,68313.75
2024-03-14T17:55:15.295Z,68312.66
2024-03-14T17:57:43.911Z,68307.91
2024-03-14T18:00:12.402Z,68302.06
2024-03-14T18:02:41.270Z,68294.53
2024-03-14T18:05:10.550Z,68293.94
2024-03-14T18:07:38.696Z,68292.81
2024-03-14T18:10:11.253Z,68298.84
2024-03-14T18:12:39.176Z,68291.69
2024-03-14T18:15:09.472Z,68294.13
2024-03-14T18:17:38.261Z,68293.00
2024-03-14T18:20:13.880Z,68286.38
2024-03-14T18:22:50.539Z,68291.84
2024-03-14T18:25:21.205Z,68294.50
2024-03-14T18:27:50.615Z,68285.81
2024-03-14T18:30:21.404Z,68291.66
2024-03-14T18:32:51.229Z,68284.13
2024-03-14T18:35:22.179Z,68282.41
2024-03-14T18:37:51.008Z,68278.47
2024-03-14T18:40:27.361Z,68274.50
2024-03-14T18:42:58.725Z,68278.06
2024-03-14T18:45:27.555Z,68274.88
2024-03-14T18:47:56.267Z,68273.72
2024-03-14T18:50:23.474Z,68269.38
2024-03-14T18:52:52.061Z,68277.13
2024-03-14T18:55:21.863Z,68272.03
2024-03-14T18:57:49.677Z,68268.06
2024-03-14T19:00:20.802Z,68270.53
2024-03-14T19:02:50.200Z,68263.16
2024-03-14T19:05:18.324Z,68259.19
2024-03-14T19:07:45.755Z,68274.28
2024-03-14T19:10:13.207Z,68262.59
2024-03-14T19:12:40.394Z,68262.41
2024-03-14T19:15:07.887Z,68259.19
2024-03-14T19:17:35.959Z,68260.50
2024-03-14T19:20:06.192Z,68255.03
2024-03-14T19:22:33.564Z,68253.53
2024-03-14T19:25:01.706Z,68239.56
2024-03-14T19:27:29.003Z,68238.06
2024-03-14T19:29:57.609Z,68237.47
2024-03-14T19:32:25.682Z,68225.97
2024-03-14T19:34:53.280Z,68222.94
2024-03-14T19:37:21.574Z,68219.91
2024-03-14T19:39:49.501Z,68215.00
2024-03-14T19:42:18.850Z,68210.47
2024-03-14T19:44:47.127Z,68218.59
2024-03-14T19:47:14.301Z,68212.19
2024-03-14T19:49:42.301Z,68207.63
2024-03-14T19:52:09.434Z,68211.03
2024-03-14T19:54:37.573Z,68214.81
2024-03-14T19:57:06.606Z,68203.88
2024-03-14T19:59:34.755Z,68202.56
2024-03-14T20:02:01.842Z,68199.72
2024-03-14T20:04:31.019Z,68201.25
2024-03-14T20:06:59.384Z,68195.38
2024-03-14T20:09:27.206Z,68197.63
2024-03-14T20:11:57.634Z,68191.03
2024-03-14T20:14:25.437Z,68191.59
2024-03-14T20:16:53.045Z,68193.47
2024-03-14T20:19:21.036Z,68188.38
2024-03-14T20:21:48.881Z,68184.25
2024-03-14T20:24:16.867Z,68182.53
2024-03-14T20:26:44.764Z,68186.31
2024-03-14T20:29:11.887Z,68177.25
2024-03-14T20:31:39.754Z,68178.75
2024-03-14T20:34:08.924Z,68178.56
2024-03-14T20:36:36.304Z,68186.13
2024-03-14T20:39:11.780Z,68191.41
2024-03-14T20:41:39.148Z,68189.31
2024-03-14T20:44:09.254Z,68179.13
2024-03-14T20:46:36.893Z,68172.53
2024-03-14T20:49:05.061Z,68189.31
2024-03-14T20:51:32.573Z,68177.06
2024-03-14T20:54:02.468Z,68173.31
2024-03-14T20:56:43.206Z,68170.84
2024-03-14T20:59:13.714Z,68176.69
2024-03-14T21:01:40.852Z,68167.63
2024-03-14T21:04:11.213Z,68161.97
2024-03-14T21:06:39.267Z,68163.09
2024-03-14T21:09:09.091Z,68162.91
2024-03-14T21:11:38.672Z,68158.94
2024-03-14T21:14:07.111Z,68163.84
2024-03-14T21:16:36.326Z,68158.00
2024-03-14T21:19:04.739Z,68162.16
2024-03-14T21:21:32.179Z,68157.06
2024-03-14T21:24:02.697Z,68164.22
2024-03-14T21:26:30.415Z,68162.16
2024-03-14T21:29:00.785Z,68156.13
2024-03-14T21:31:30.003Z,68156.31
2024-03-14T21:33:57.215Z,68148.00
2024-03-14T21:36:26.779Z,68144.22
2024-03-14T21:38:53.923Z,68140.09
2024-03-14T21:41:21.288Z,68135.56
2024-03-14T21:43:48.371Z,68131.78
2024-03-14T21:46:15.514Z,68135.34
2024-03-14T21:48:46.628Z,68135.19
2024-03-14T21:51:13.958Z,68138.38
2024-03-14T21:53:41.824Z,68130.28
2024-03-14T21:56:08.840Z,68135.56
2024-03-14T21:58:41.862Z,68131.94
2024-03-14T22:01:16.667Z,68124.25
2024-03-14T22:03:43.923Z,68123.31
2024-03-14T22:06:11.213Z,68120.47
2024-03-14T22:08:38.572Z,68117.25
2024-03-14T22:11:05.960Z,68124.63
2024-03-14T22:13:33.285Z,68121.41
2024-03-14T22:16:00.446Z,68123.09
2024-03-14T22:18:27.683Z,68123.84
2024-03-14T22:20:54.801Z,68115.91
2024-03-14T22:23:22.275Z,68117.41
2024-03-14T22:25:49.409Z,68114.38
2024-03-14T22:28:16.681Z,68111.75
2024-03-14T22:30:47.905Z,68101.97
2024-03-14T22:33:19.885Z,68100.25
2024-03-14T22:35:47.050Z,68103.66
2024-03-14T22:38:14.111Z,68101.94
2024-03-14T22:40:41.308Z,68097.06
2024-03-14T22:43:09.559Z,68096.28
2024-03-14T22:45:37.019Z,68090.47
2024-03-14T22:48:04.649Z,68094.03
2024-03-14T22:50:31.937Z,68086.50
2024-03-14T22:53:00.195Z,68091.19
2024-03-14T22:55:27.295Z,68084.41
2024-03-14T22:57:54.807Z,68079.88
2024-03-14T23:00:40.657Z,68085.91
2024-03-14T23:03:09.124Z,68078.94
2024-03-14T23:05:36.258Z,68075.19
2024-03-14T23:08:05.067Z,68071.00
2024-03-14T23:10:32.157Z,68068.75
2024-03-14T23:12:59.323Z,68065.34
2024-03-14T23:15:27.510Z,68065.72
2024-03-14T23:17:55.510Z,68065.94
2024-03-14T23:20:27.985Z,68059.91
2024-03-14T23:22:55.176Z,68064.03
2024-03-14T23:25:22.422Z,68059.13
2024-03-14T23:27:50.373Z,68062.91
2024-03-14T23:30:17.530Z,68056.31
2024-03-14T23:32:47.197Z,68053.09
2024-03-14T23:35:15.284Z,68050.84
2024-03-14T23:37:43.377Z,68050.06
2024-03-14T23:40:13.781Z,68055.00
2024-03-14T23:42:43.280Z,68049.53
2024-03-14T23:45:10.582Z,68049.91
2024-03-14T23:47:43.838Z,68051.00
2024-03-14T23:50:16.251Z,68045.00
2024-03-14T23:52:48.232Z,68043.69
2024-03-14T23:55:15.612Z,68039.91
2024-03-14T23:57:45.579Z,68037.44
